< Typhoon 199218 1992 Season Typhoon 199220 >
Typhoon 199219 (TED)
General InformationTrack Information on Google MapsDetailed Wind InformationList of All Images || Disaster Info.ResourceGoogle EarthGE AnimationAtom FeedGeoJSON
Detalied Best Track (Time Zone = UTC)
Year Month Day Hour Lat. Long. Pressure (hPa) Wind (kt) Class Image Chart
1992 9 17 18 14.1 140.0 1004 0 2 Image Chart
1992 9 18 00 14.7 138.7 1004 0 2 Image Chart
1992 9 18 06 15.1 137.3 1000 0 2 Image Chart
1992 9 18 12 15.3 134.8 1000 0 2 Image Chart
1992 9 18 18 15.4 133.0 1000 0 2 Image Chart
1992 9 19 00 15.6 131.6 1000 0 2 Image Chart
1992 9 19 06 16.0 129.7 998 35 3 Image Chart
1992 9 19 12 16.5 128.0 996 35 3 Image Chart
1992 9 19 18 17.0 127.2 992 40 3 Image Chart
1992 9 20 00 17.4 126.3 990 45 3 Image Chart
1992 9 20 06 18.1 124.8 990 45 3 Image Chart
1992 9 20 12 18.6 123.9 985 50 4 Image Chart
1992 9 20 18 19.0 123.4 985 50 4 Image Chart
1992 9 21 00 19.4 122.8 985 50 4 Image Chart
1992 9 21 06 19.9 122.4 985 50 4 Image Chart
1992 9 21 12 20.8 122.1 985 50 4 Image Chart
1992 9 21 18 21.3 122.0 985 50 4 Image Chart
1992 9 22 00 21.8 121.8 985 50 4 Image Chart
1992 9 22 06 23.5 121.5 985 50 4 Image Chart
1992 9 22 09 24.3 121.6 985 50 4 Image Chart
1992 9 22 12 25.1 121.1 985 50 4 Image Chart
1992 9 22 15 25.7 121.3 985 50 4 Image Chart
1992 9 22 18 26.3 121.2 985 50 4 Image Chart
1992 9 22 21 27.0 121.2 985 50 4 Image Chart
1992 9 23 00 27.7 121.1 990 50 4 Image Chart
1992 9 23 06 29.5 120.7 990 45 3 Image Chart
1992 9 23 12 30.9 120.8 994 45 3 Image Chart
1992 9 23 18 32.1 121.1 994 45 3 Image Chart
1992 9 24 00 33.2 122.4 994 45 3 Image Chart
1992 9 24 06 34.5 124.4 994 45 3 Image Chart
1992 9 24 09 35.6 125.9 994 40 3 Image Chart
1992 9 24 12 36.3 127.4 994 40 3 Image Chart
1992 9 24 15 37.4 129.9 994 0 6 Image Chart
1992 9 24 18 38.2 131.9 992 0 6 Image Chart
1992 9 25 00 40.0 135.0 990 0 6 Image Chart
1992 9 25 06 41.3 139.2 990 0 6 Image Chart
1992 9 25 12 42.5 142.3 990 0 6 Image Chart
1992 9 25 18 45.0 147.0 988 0 6 Image Chart
1992 9 26 00 46.7 150.0 988 0 6 Image Chart
1992 9 26 06 48.5 155.0 990 0 6 Image Chart
1992 9 26 12 50.0 160.0 996 0 6 Image Chart
1992 9 26 18 51.0 165.0 996 0 6 Image Chart
1992 9 27 00 51.0 170.0 996 0 6 Image Chart
1992 9 27 06 50.5 174.0 1000 0 6 Image Chart
1992 9 27 12 50.0 179.0 1006 0 6 Image Chart
Japan Meteorological Agency Best Track Data | Correction Date : 1992-12-25
< Typhoon 199218 1992 Season Typhoon 199220 >

Help